Guiricema, Brazil
Current Conditions -  °F | °C
As of 9:00 AM on Wednesday 26 Nov 2014 (Local Time) from SBBQ Reporting Station
Overcast Overcast  
Wind Chill: 68°   Ceiling: 1100
Heat Index: 68°   Visibility: 6mi
Dew Point: 64°   Wind: 9mph
Humidity: 88%   Direction: 350°N
Pressure: 30.06"   Gusts: NA
Location:  21.01°S, 42.72°W
Report Text: SBBQ 261100Z 35008KT 9999 OVC011 20/18 Q1018
Loading
Personal Weather Stations






























Interactive Weather Map New forecast layout! Learn more

10-Day Weather Forecast

Advertisements
Track Severe Weather on mobile